クイアバ空港の過去48時間の天気

クイアバ空港 (Cuiaba Aeroporto )

現在時刻: 5/25 20:58 -04 (5/26 00:58 UTC) 以下の時間は現地時間です。

過去48時間のMETAR気象情報
時間 風向 風速(m/s) 視程 気温(℃) 湿度(%) 気圧(hPa) 天気現象
25 20:00 北東 2 10km以上 27 62 1015
25 19:00 北東 1 10km以上 27 58 1014
25 18:00 2 10km以上 29 48 1014
25 17:00 北北西 2 10km以上 31 43 1013
25 16:00 北北西 3 10km以上 34 34 1013
25 15:00 北北西 5 10km以上 34 36 1013
25 14:00 4 10km以上 34 34 1014
25 13:00 北北東 3 10km以上 33 41 1015
25 12:00 5 10km以上 33 38 1016
25 11:00 北西 2 10km以上 31 46 1017
25 10:00 北北西 2 10km以上 29 48 1018
25 09:00 北西 4 10km以上 25 54 1018
25 08:00 北西 3 10km以上 22 65 1017
25 07:00 北西 3 10km以上 19 78 1017
25 06:00 北西 4 10km以上 18 83 1016
25 05:00 北西 3 10km以上 17 88 1015
25 04:00 北西 4 10km以上 17 88 1015
25 03:00 北西 3 10km以上 18 83 1014
25 02:00 北西 2 10km以上 19 78 1015
25 01:00 西北西 1 10km以上 18 88 1015
25 00:00 1 10km以上 20 73 1015
24 23:00 静穏 0 10km以上 20 73 1015
24 22:00 北西 1 10km以上 21 73 1015
24 21:00 南南東 2 10km以上 22 65 1015
24 20:00 静穏 0 10km以上 24 47 1014
24 19:00 北西 2 10km以上 26 45 1014
24 18:00 北北西 2 10km以上 28 35 1013
24 17:00 北北西 3 10km以上 30 31 1012
24 16:00 1 10km以上 33 24 1012
24 15:00 東北東 3 10km以上 34 25 1012
24 14:00 3 10km以上 34 23 1012
24 13:00 北西 4 10km以上 34 23 1013
24 12:00 4 10km以上 34 25 1014
24 11:00 5 10km以上 33 24 1015
24 10:00 3 10km以上 29 37 1016
24 09:00 北西 4 10km以上 26 51 1016
24 08:00 北西 4 10km以上 22 78 1016
24 07:00 北西 3 10km以上 19 78 1016
24 06:00 西 4 10km以上 17 83 1015
24 05:00 西 4 10km以上 18 77 1014
24 04:00 西 4 10km以上 18 83 1014
24 03:00 西 3 10km以上 18 83 1014
24 02:00 西 2 10km以上 19 83 1014
24 01:00 北西 2 10km以上 19 78 1014
24 00:00 静穏 0 10km以上 19 83 1014
23 23:00 静穏 0 10km以上 20 73 1015
23 22:00 2 10km以上 21 73 1015
23 21:00 静穏 0 10km以上 22 65 1014
SBCY 260000Z 05003KT CAVOK 27/19 Q1015
SBCY 252300Z 05002KT CAVOK 27/18 Q1014
SBCY 252200Z 36003KT CAVOK 29/17 Q1014
SBCY 252100Z 33004KT 9999 FEW020 31/17 Q1013
SBCY 252000Z 34006KT 9999 SCT020 34/16 Q1013
SBCY 251900Z 34009KT 9999 BKN020 34/17 Q1013
SBCY 251800Z 35007KT 9999 BKN020 34/16 Q1014
SBCY 251700Z 03006KT 9999 BKN020 33/18 Q1015
SBCY 251600Z 36010KT 9999 FEW020 33/17 Q1016
SBCY 251500Z 32004KT CAVOK 31/18 Q1017
SBCY 251400Z 33004KT CAVOK 29/17 Q1018
SBCY 251300Z 31007KT CAVOK 25/15 Q1018
SBCY 251200Z 32006KT CAVOK 22/15 Q1017
SBCY 251100Z 32005KT CAVOK 19/15 Q1017
SBCY 251000Z 31007KT CAVOK 18/15 Q1016
SBCY 250900Z 32005KT CAVOK 17/15 Q1015
SBCY 250800Z 32007KT CAVOK 17/15 Q1015
SBCY 250700Z 32005KT CAVOK 18/15 Q1014
SBCY 250600Z 31004KT CAVOK 19/15 Q1015
SBCY 250500Z 30002KT CAVOK 18/16 Q1015
SBCY 250400Z 19002KT CAVOK 20/15 Q1015
SBCY 250300Z 00000KT CAVOK 20/15 Q1015
SBCY 250200Z 31001KT CAVOK 21/16 Q1015
SBCY 250100Z 16003KT CAVOK 22/15 Q1015
SBCY 250000Z 00000KT CAVOK 24/12 Q1014
SBCY 242300Z 31003KT CAVOK 26/13 Q1014
SBCY 242200Z 33003KT CAVOK 28/11 Q1013
SBCY 242100Z 33005KT CAVOK 30/11 Q1012
SBCY 242000Z 36002KT CAVOK 33/10 Q1012
SBCY 241900Z 06005KT CAVOK 34/11 Q1012
SBCY 241800Z 35005KT CAVOK 34/10 Q1012
SBCY 241700Z 32008KT CAVOK 34/10 Q1013
SBCY 241600Z 35007KT CAVOK 34/11 Q1014
SBCY 241500Z 35010KT CAVOK 33/10 Q1015
SBCY 241400Z 35005KT CAVOK 29/13 Q1016
SBCY 241300Z 31007KT CAVOK 26/15 Q1016
SBCY 241200Z 31007KT CAVOK 22/18 Q1016
SBCY 241100Z 32005KT CAVOK 19/15 Q1016
SBCY 241000Z 27007KT CAVOK 17/14 Q1015
SBCY 240900Z 26008KT CAVOK 18/14 Q1014
SBCY 240800Z 27008KT CAVOK 18/15 Q1014
SBCY 240700Z 27005KT CAVOK 18/15 Q1014
SBCY 240600Z 28004KT CAVOK 19/16 Q1014
SBCY 240500Z 31003KT CAVOK 19/15 Q1014
SBCY 240400Z 00000KT CAVOK 19/16 Q1014
SBCY 240300Z 00000KT CAVOK 20/15 Q1015
SBCY 240200Z 09004KT CAVOK 21/16 Q1015
SBCY 240100Z 00000KT CAVOK 22/15 Q1014